Time;durP1;ratioP1;P1;durP2;ratioP2;P2;SDS_P1;SDS_P2;PMS_P1;PMS_P2;Temp;Humidity;BMP_temperature;BMP_pressure;BME280_temperature;BME280_humidity;BME280_pressure;Samples;Min_cycle;Max_cycle;Signal;HPM_P1;HPM_P2
2021/12/28 00:00:13;;;;;;;14.47;12.80;;;;;;;12.35;67.68;93879.00;5104790;28;20451;-77
2021/12/28 00:02:41;;;;;;;12.17;10.93;;;;;;;12.05;68.71;93876.38;5102288;28;20298;-77
2021/12/28 00:05:09;;;;;;;12.93;11.57;;;;;;;12.05;69.26;93879.00;5086046;28;20434;-76
2021/12/28 00:07:35;;;;;;;13.37;10.97;;;;;;;12.15;68.17;93883.72;5104585;28;20786;-77
2021/12/28 00:10:02;;;;;;;15.10;12.10;;;;;;;12.18;69.05;93885.88;5104612;28;20479;-77
2021/12/28 00:12:31;;;;;;;13.97;10.90;;;;;;;12.23;68.02;93896.50;5070834;28;20528;-77
2021/12/28 00:18:00;;;;;;;14.47;12.63;;;;;;;11.97;69.86;93893.22;5014378;28;20418;-77
2021/12/28 00:20:48;;;;;;;13.50;12.10;;;;;;;12.32;68.20;93894.38;5066502;28;20458;-77
2021/12/28 00:23:18;;;;;;;18.23;13.80;;;;;;;12.14;68.38;93898.66;5059252;28;20432;-77
2021/12/28 00:25:50;;;;;;;17.00;13.70;;;;;;;12.43;68.14;93897.03;5065109;28;20428;-77
2021/12/28 00:28:16;;;;;;;15.83;13.50;;;;;;;12.28;68.14;93889.56;5066097;28;20417;-77
2021/12/28 00:30:43;;;;;;;19.73;13.13;;;;;;;12.25;68.11;93895.25;5068052;28;20424;-77
2021/12/28 00:33:10;;;;;;;13.83;12.47;;;;;;;12.44;68.55;93898.63;5058759;28;20425;-78
2021/12/28 00:35:42;;;;;;;16.10;11.63;;;;;;;12.17;67.83;93898.19;5068490;28;20444;-77
2021/12/28 00:38:18;;;;;;;15.17;13.57;;;;;;;12.37;67.45;93892.69;5065808;28;20413;-77
2021/12/28 00:40:46;;;;;;;16.33;11.73;;;;;;;11.69;69.40;93893.75;5081733;28;20871;-77
2021/12/28 00:43:12;;;;;;;16.23;11.17;;;;;;;11.64;69.58;93901.44;5066683;28;20420;-75
2021/12/28 00:45:38;;;;;;;13.53;12.13;;;;;;;11.68;69.70;93890.28;5086141;28;20444;-76
2021/12/28 00:48:07;;;;;;;14.07;12.67;;;;;;;12.18;68.34;93889.31;5077627;28;20453;-77
2021/12/28 00:50:32;;;;;;;13.20;11.70;;;;;;;12.02;67.96;93882.84;5078887;28;20221;-77
2021/12/28 00:52:58;;;;;;;10.47;9.37;;;;;;;11.97;68.33;93889.78;5079111;28;20539;-76
2021/12/28 00:55:25;;;;;;;10.73;9.63;;;;;;;11.83;68.32;93889.91;5073807;28;20914;-77
2021/12/28 00:57:51;;;;;;;10.47;9.47;;;;;;;12.06;67.57;93884.00;5069579;28;20184;-76
2021/12/28 01:00:21;;;;;;;11.00;9.90;;;;;;;12.16;67.33;93886.13;5087693;28;20452;-76
2021/12/28 01:02:47;;;;;;;10.53;9.50;;;;;;;12.18;67.36;93889.31;5080425;28;21037;-78
2021/12/28 01:05:13;;;;;;;11.03;9.83;;;;;;;12.26;68.18;93891.63;5085879;28;21017;-78
2021/12/28 01:07:39;;;;;;;11.97;10.60;;;;;;;12.22;68.00;93890.47;5085883;28;20486;-78
2021/12/28 01:10:07;;;;;;;10.67;9.57;;;;;;;12.10;67.99;93879.13;5087206;28;20420;-77
2021/12/28 01:12:33;;;;;;;11.40;9.40;;;;;;;12.28;67.89;93889.56;5092325;28;20262;-77
2021/12/28 01:14:59;;;;;;;10.53;9.50;;;;;;;12.28;67.31;93889.56;5069403;28;20438;-77
2021/12/28 01:17:24;;;;;;;12.07;9.13;;;;;;;12.44;67.02;93880.25;5085659;28;20420;-76
2021/12/28 01:19:50;;;;;;;12.10;8.97;;;;;;;12.89;64.73;93898.13;5084757;28;20182;-77
2021/12/28 01:22:15;;;;;;;10.37;9.30;;;;;;;12.52;65.92;93894.91;5068891;28;20224;-77
2021/12/28 01:24:41;;;;;;;9.90;8.90;;;;;;;12.44;66.25;93900.44;5086989;28;20182;-77
2021/12/28 01:27:06;;;;;;;9.23;8.33;;;;;;;12.59;65.99;93900.03;5086399;28;20233;-77
2021/12/28 01:29:33;;;;;;;10.37;9.37;;;;;;;12.76;64.99;93889.69;5068495;28;20182;-77
2021/12/28 01:31:59;;;;;;;10.60;9.40;;;;;;;12.50;66.18;93883.81;5066850;28;20197;-77
2021/12/28 01:34:25;;;;;;;11.20;9.47;;;;;;;12.56;66.87;93888.19;5085482;28;20431;-76
2021/12/28 01:36:51;;;;;;;9.63;8.73;;;;;;;12.59;66.40;93884.28;5083446;28;20460;-77
2021/12/28 01:39:16;;;;;;;10.77;9.10;;;;;;;12.71;65.47;93882.50;5085182;28;20412;-77
2021/12/28 01:41:42;;;;;;;9.20;8.40;;;;;;;13.14;63.64;93881.38;5081442;28;20198;-76
2021/12/28 01:44:10;;;;;;;9.27;8.37;;;;;;;12.46;66.11;93890.53;5046846;28;20638;-77
2021/12/28 01:46:36;;;;;;;11.80;9.27;;;;;;;12.46;66.44;93893.16;5073537;28;20234;-76
2021/12/28 01:49:05;;;;;;;12.67;9.80;;;;;;;12.79;65.25;93890.03;5064741;28;20420;-77
2021/12/28 01:51:32;;;;;;;12.93;10.57;;;;;;;12.54;65.58;93898.09;5065756;28;20457;-78
2021/12/28 01:54:00;;;;;;;10.50;9.10;;;;;;;12.60;65.79;93891.94;5059440;28;20443;-77
2021/12/28 01:56:34;;;;;;;13.30;10.40;;;;;;;12.64;65.88;93892.28;5085369;28;20420;-77
2021/12/28 01:59:00;;;;;;;9.97;8.97;;;;;;;12.47;66.41;93892.94;5077686;28;20552;-77
2021/12/28 02:01:26;;;;;;;13.47;12.17;;;;;;;12.69;66.30;93885.34;5074744;28;20461;-78
2021/12/28 02:03:52;;;;;;;10.30;9.40;;;;;;;12.63;66.69;93886.22;5105610;28;20412;-77
2021/12/28 02:06:18;;;;;;;12.67;11.13;;;;;;;12.62;66.06;93887.25;5105285;28;21176;-78
2021/12/28 02:08:44;;;;;;;13.40;11.03;;;;;;;12.62;66.55;93887.25;5105770;28;20185;-79
2021/12/28 02:11:12;;;;;;;11.03;9.40;;;;;;;13.06;64.82;93879.88;5086689;28;20484;-77
2021/12/28 02:13:38;;;;;;;14.10;10.07;;;;;;;12.73;65.76;93890.94;5103218;28;20418;-76
2021/12/28 02:16:04;;;;;;;11.87;10.60;;;;;;;12.55;66.11;93883.94;5105546;28;20419;-77
2021/12/28 02:18:31;;;;;;;14.13;11.27;;;;;;;12.57;66.52;93884.50;5086575;28;20412;-77
2021/12/28 02:20:59;;;;;;;12.90;11.50;;;;;;;12.57;66.41;93881.88;5066093;28;20210;-77
2021/12/28 02:23:25;;;;;;;13.67;12.10;;;;;;;12.82;65.97;93881.69;5083948;28;20427;-77
2021/12/28 02:25:51;;;;;;;13.17;11.77;;;;;;;12.65;66.53;93878.13;5085022;28;20428;-78
2021/12/28 02:28:17;;;;;;;18.37;13.23;;;;;;;12.65;66.22;93884.19;5069679;28;20517;-77
2021/12/28 02:30:46;;;;;;;13.10;11.87;;;;;;;13.21;64.66;93881.25;5085175;28;20469;-77
2021/12/28 02:33:12;;;;;;;15.00;11.00;;;;;;;12.54;66.38;93882.34;5083483;28;20647;-78
2021/12/28 02:35:38;;;;;;;15.07;11.87;;;;;;;12.62;66.42;93878.59;5083415;28;20454;-78
2021/12/28 02:38:06;;;;;;;13.57;11.43;;;;;;;12.69;66.11;93877.47;5070786;28;20514;-77
2021/12/28 02:40:33;;;;;;;12.77;11.40;;;;;;;12.99;64.32;93873.94;5084247;28;20427;-76
2021/12/28 02:43:01;;;;;;;14.77;12.37;;;;;;;12.57;65.78;93875.84;5063167;28;20496;-77
2021/12/28 02:45:28;;;;;;;11.47;9.93;;;;;;;12.57;66.08;93874.00;5083836;28;20448;-78
2021/12/28 02:47:54;;;;;;;14.87;13.00;;;;;;;12.30;67.55;93878.88;5082012;28;20528;-77
2021/12/28 02:50:23;;;;;;;13.80;12.13;;;;;;;12.15;68.15;93879.25;5083887;28;20435;-76
2021/12/28 02:52:49;;;;;;;12.80;11.60;;;;;;;12.15;68.05;93881.88;5066448;28;20452;-78
2021/12/28 02:55:18;;;;;;;14.20;12.80;;;;;;;11.47;70.76;93888.91;5084782;28;20424;-78
2021/12/28 02:58:12;;;;;;;13.40;11.70;;;;;;;12.14;68.37;93882.94;5066404;28;20475;-77
2021/12/28 03:00:42;;;;;;;14.40;13.00;;;;;;;12.33;67.53;93880.22;5081286;28;20482;-76
2021/12/28 03:03:29;;;;;;;12.93;11.37;;;;;;;11.80;69.42;93890.38;5065274;28;20420;-77
2021/12/28 03:05:57;;;;;;;15.00;13.47;;;;;;;12.07;68.61;93884.81;5084283;28;20431;-77
2021/12/28 03:08:24;;;;;;;13.13;11.10;;;;;;;12.23;67.25;93883.41;5082185;28;20424;-78
2021/12/28 03:10:52;;;;;;;10.80;9.87;;;;;;;12.25;66.96;93886.59;5085398;28;20423;-77
2021/12/28 03:13:22;;;;;;;14.10;10.90;;;;;;;11.97;68.17;93889.78;5086414;28;20415;-77
2021/12/28 03:15:47;;;;;;;11.47;10.37;;;;;;;12.35;67.65;93888.66;5103648;28;20438;-77
2021/12/28 03:18:13;;;;;;;11.20;10.10;;;;;;;12.21;67.51;93881.00;5082718;28;20416;-77
2021/12/28 03:20:39;;;;;;;12.57;11.03;;;;;;;12.34;67.89;93881.84;5084667;28;20197;-78
2021/12/28 03:23:04;;;;;;;11.90;10.70;;;;;;;12.40;67.46;93891.44;5099342;28;20291;-77
2021/12/28 03:25:31;;;;;;;11.87;10.77;;;;;;;12.29;67.47;93891.19;5104460;28;20185;-78
2021/12/28 03:27:57;;;;;;;11.80;10.60;;;;;;;12.30;67.85;93882.28;5103377;28;20232;-77
2021/12/28 03:30:23;;;;;;;12.40;11.10;;;;;;;12.27;67.50;93880.13;5086224;28;20469;-78
2021/12/28 03:32:51;;;;;;;12.27;10.93;;;;;;;12.66;65.98;93880.53;5103372;28;20403;-77
2021/12/28 03:35:16;;;;;;;11.70;10.47;;;;;;;12.32;66.59;93873.41;5102323;28;20191;-77
2021/12/28 03:37:42;;;;;;;11.83;10.70;;;;;;;12.33;67.00;93875.81;5104230;28;20479;-76
2021/12/28 03:40:11;;;;;;;11.20;10.10;;;;;;;12.38;67.34;93875.91;5085390;28;20189;-78
2021/12/28 03:42:37;;;;;;;12.40;11.10;;;;;;;12.55;67.05;93876.06;5104424;28;20421;-77
2021/12/28 03:45:05;;;;;;;13.03;10.83;;;;;;;12.08;67.38;93892.47;5104022;28;21059;-77
2021/12/28 03:47:31;;;;;;;13.27;10.20;;;;;;;12.25;67.61;93889.22;5108139;28;20565;-78
2021/12/28 03:49:56;;;;;;;10.93;9.80;;;;;;;12.38;67.52;93873.28;5090855;28;20434;-77
2021/12/28 03:52:22;;;;;;;11.40;9.07;;;;;;;11.64;68.63;93883.09;5090718;28;20411;-77
2021/12/28 03:54:47;;;;;;;11.97;10.03;;;;;;;11.79;68.64;93885.34;5107780;28;20208;-77
2021/12/28 03:57:13;;;;;;;12.77;11.47;;;;;;;11.89;68.47;93868.13;5107950;28;20191;-77
2021/12/28 03:59:38;;;;;;;15.43;9.57;;;;;;;11.99;68.13;93885.94;5108885;28;20200;-77
2021/12/28 04:02:04;;;;;;;13.07;10.60;;;;;;;11.88;68.61;93878.78;5090554;28;20567;-78
2021/12/28 04:04:30;;;;;;;12.50;11.20;;;;;;;11.71;68.74;93878.59;5108408;28;20214;-77
2021/12/28 04:06:55;;;;;;;11.80;10.60;;;;;;;12.14;67.22;93888.16;5106570;28;20496;-77
2021/12/28 04:09:45;;;;;;;15.43;11.23;;;;;;;12.12;67.78;93890.19;5086362;28;20181;-78
2021/12/28 04:12:07;;;;;;;12.03;10.83;;;;;;;12.22;67.45;93893.09;5094765;28;20217;-77
2021/12/28 04:14:32;;;;;;;11.90;10.27;;;;;;;12.15;67.84;93895.00;5107935;28;20410;-77
2021/12/28 04:16:58;;;;;;;12.67;11.17;;;;;;;11.83;68.85;93892.53;5108356;28;20427;-78
2021/12/28 04:19:23;;;;;;;13.00;10.70;;;;;;;12.04;68.27;93880.03;5107201;28;20185;-78
2021/12/28 04:21:49;;;;;;;15.23;10.80;;;;;;;12.23;66.29;93889.44;5107524;28;20189;-78
2021/12/28 04:24:14;;;;;;;11.70;10.50;;;;;;;12.09;67.39;93895.91;5107936;28;20232;-77
2021/12/28 04:26:40;;;;;;;12.60;10.00;;;;;;;12.37;67.45;93895.31;5107714;28;20205;-77
2021/12/28 04:29:05;;;;;;;10.50;9.23;;;;;;;12.16;67.31;93896.63;5107939;28;20205;-77
2021/12/28 04:31:31;;;;;;;12.23;11.03;;;;;;;12.20;67.28;93905.63;5106614;28;20509;-78
2021/12/28 04:33:56;;;;;;;12.13;10.60;;;;;;;12.34;66.82;93905.44;5107743;28;20177;-77
2021/12/28 04:36:22;;;;;;;11.87;10.67;;;;;;;12.39;66.38;93905.59;5107900;28;20189;-77
2021/12/28 04:38:48;;;;;;;11.77;10.67;;;;;;;12.39;66.69;93905.59;5107854;28;20259;-77
2021/12/28 04:41:14;;;;;;;14.37;11.10;;;;;;;12.29;67.43;93909.53;5090174;28;20435;-78
2021/12/28 04:43:40;;;;;;;13.47;10.40;;;;;;;12.32;67.06;93905.66;5088878;28;20411;-77
2021/12/28 04:46:06;;;;;;;13.93;12.20;;;;;;;12.40;66.84;93907.16;5100108;28;20458;-77
2021/12/28 04:48:32;;;;;;;12.80;10.60;;;;;;;12.81;65.62;93902.94;5107432;28;20184;-78
2021/12/28 04:50:58;;;;;;;12.70;10.67;;;;;;;12.96;63.73;93903.28;5107357;28;20173;-77
2021/12/28 04:53:24;;;;;;;12.77;11.40;;;;;;;12.44;65.68;93898.63;5089246;28;20435;-76
2021/12/28 04:55:50;;;;;;;16.60;11.67;;;;;;;12.03;67.71;93904.66;5107252;28;20512;-77
2021/12/28 04:58:16;;;;;;;12.90;11.57;;;;;;;12.18;66.59;93899.81;5105055;28;20188;-77
2021/12/28 05:00:45;;;;;;;16.10;12.70;;;;;;;12.30;66.60;93899.84;5107146;28;20441;-76
2021/12/28 05:03:11;;;;;;;15.50;13.00;;;;;;;11.86;67.33;93902.59;5107288;28;20415;-78
2021/12/28 05:05:40;;;;;;;13.87;12.37;;;;;;;11.79;67.99;93904.50;5107595;28;20453;-78
2021/12/28 05:08:06;;;;;;;19.27;13.27;;;;;;;11.89;67.60;93896.97;5106785;28;20451;-77
2021/12/28 05:10:32;;;;;;;16.53;12.80;;;;;;;11.89;67.34;93896.97;5088882;28;20481;-77
2021/12/28 05:12:58;;;;;;;12.53;10.90;;;;;;;12.19;67.04;93896.16;5094931;28;20459;-77
2021/12/28 05:15:23;;;;;;;16.00;12.97;;;;;;;12.00;66.71;93892.78;5107107;28;20501;-77
2021/12/28 05:17:49;;;;;;;13.10;11.80;;;;;;;12.14;66.45;93890.78;5106273;28;20177;-76
2021/12/28 05:20:14;;;;;;;12.33;10.50;;;;;;;11.75;68.37;93895.47;5107077;28;20177;-78
2021/12/28 05:22:40;;;;;;;14.40;12.27;;;;;;;11.48;68.84;93898.41;5087968;28;20712;-78
2021/12/28 05:25:07;;;;;;;12.93;11.47;;;;;;;11.78;68.50;93905.53;5105304;28;20264;-78
2021/12/28 05:27:32;;;;;;;17.70;13.50;;;;;;;12.08;67.71;93896.91;5106998;28;20193;-77
2021/12/28 05:29:58;;;;;;;18.40;12.47;;;;;;;12.21;66.03;93898.56;5088818;28;20431;-78
2021/12/28 05:32:23;;;;;;;16.80;13.37;;;;;;;11.90;67.17;93903.00;5087898;28;20256;-77
2021/12/28 05:34:49;;;;;;;18.20;14.03;;;;;;;11.86;67.66;93909.66;5105893;28;20188;-78
2021/12/28 05:37:15;;;;;;;26.23;16.00;;;;;;;11.86;67.48;93907.84;5105684;28;20264;-78
2021/12/28 05:39:40;;;;;;;15.80;12.67;;;;;;;11.86;68.05;93914.91;5088344;28;20231;-78
2021/12/28 05:42:06;;;;;;;14.87;12.90;;;;;;;11.74;68.50;93917.44;5106174;28;20185;-77
2021/12/28 05:44:32;;;;;;;13.97;11.60;;;;;;;11.87;68.11;93919.13;5106083;28;20177;-77
2021/12/28 05:46:57;;;;;;;16.47;12.20;;;;;;;12.28;66.52;93915.81;5105369;28;20471;-77
2021/12/28 05:49:23;;;;;;;14.00;12.40;;;;;;;12.03;66.66;93921.19;5093073;28;20749;-77
2021/12/28 05:51:49;;;;;;;14.70;12.30;;;;;;;12.00;67.27;93918.19;5106175;28;20635;-78
2021/12/28 05:54:15;;;;;;;14.47;12.97;;;;;;;11.78;68.08;93918.63;5088215;28;20411;-78
2021/12/28 05:56:41;;;;;;;16.27;13.77;;;;;;;11.72;67.88;93924.72;5106048;28;20193;-79
2021/12/28 05:59:07;;;;;;;18.10;13.67;;;;;;;11.72;68.54;93932.59;5106053;28;20409;-78
2021/12/28 06:01:33;;;;;;;22.10;13.33;;;;;;;12.35;66.11;93917.53;5105107;28;20435;-78
2021/12/28 06:03:59;;;;;;;19.77;11.17;;;;;;;12.15;66.55;93915.19;5106202;28;20415;-77
2021/12/28 06:06:25;;;;;;;16.67;13.97;;;;;;;11.60;68.25;93929.13;5106566;28;20459;-78
2021/12/28 06:08:51;;;;;;;20.00;13.90;;;;;;;11.06;70.38;93924.41;5106124;28;20239;-77
2021/12/28 06:11:17;;;;;;;17.07;14.73;;;;;;;11.23;69.88;93918.59;5106105;28;20225;-78
2021/12/28 06:13:42;;;;;;;18.70;16.17;;;;;;;11.49;69.13;93918.31;5102248;28;20461;-78
2021/12/28 06:16:10;;;;;;;19.90;16.57;;;;;;;11.44;69.19;93922.59;5081194;28;20481;-77
2021/12/28 06:18:35;;;;;;;21.83;15.90;;;;;;;11.60;68.64;93919.44;5086609;28;20750;-77
2021/12/28 06:21:01;;;;;;;19.17;16.30;;;;;;;11.80;68.17;93913.97;5069278;28;20428;-78
2021/12/28 06:23:26;;;;;;;22.60;14.33;;;;;;;12.19;66.09;93916.34;5088920;28;20430;-78
2021/12/28 06:25:52;;;;;;;20.13;17.20;;;;;;;11.66;67.87;93920.38;5070836;28;20202;-79
2021/12/28 06:28:17;;;;;;;18.57;15.17;;;;;;;11.70;68.12;93929.41;5091761;28;20194;-78
2021/12/28 06:30:43;;;;;;;18.43;15.73;;;;;;;11.67;68.42;93925.41;5088618;28;20178;-78
2021/12/28 06:33:09;;;;;;;19.93;17.13;;;;;;;11.55;68.44;93926.34;5085944;28;20181;-78
2021/12/28 06:35:34;;;;;;;17.20;15.40;;;;;;;11.67;68.25;93925.41;5084501;28;20196;-79
2021/12/28 06:38:00;;;;;;;23.43;16.50;;;;;;;11.37;69.25;93933.16;5087336;28;20184;-80
2021/12/28 06:40:26;;;;;;;20.10;18.13;;;;;;;11.43;68.97;93934.13;5083608;28;20486;-78
2021/12/28 06:42:52;;;;;;;21.40;18.37;;;;;;;11.06;70.55;93932.25;5084978;28;20256;-78
2021/12/28 06:45:18;;;;;;;17.47;15.70;;;;;;;11.52;69.39;93932.81;5084571;28;20436;-78
2021/12/28 06:47:43;;;;;;;20.20;17.23;;;;;;;11.68;68.43;93937.47;5066823;28;20201;-78
2021/12/28 06:50:09;;;;;;;20.70;16.63;;;;;;;12.08;67.75;93941.50;5066516;28;20181;-77
2021/12/28 06:52:35;;;;;;;22.33;17.63;;;;;;;11.90;67.77;93944.94;5094723;28;20718;-78
2021/12/28 06:55:01;;;;;;;20.17;17.40;;;;;;;12.02;67.99;93950.25;5087649;28;20408;-77
2021/12/28 06:57:26;;;;;;;24.13;19.23;;;;;;;12.02;67.98;93956.28;5084615;28;20932;-78
2021/12/28 06:59:52;;;;;;;23.83;17.47;;;;;;;11.86;67.99;93952.41;5084776;28;20193;-78
2021/12/28 07:02:18;;;;;;;21.17;19.07;;;;;;;12.03;67.35;93957.91;5092645;28;20196;-78
2021/12/28 07:04:44;;;;;;;21.80;19.37;;;;;;;11.99;67.16;93963.78;5086462;28;20897;-78
2021/12/28 07:07:11;;;;;;;22.03;19.17;;;;;;;11.28;70.20;93960.66;5092998;28;20479;-77
2021/12/28 07:09:38;;;;;;;30.03;22.97;;;;;;;11.96;68.07;93961.63;5066533;28;20516;-78
2021/12/28 07:12:04;;;;;;;39.93;27.57;;;;;;;12.27;67.32;93956.19;5084094;28;20471;-78
2021/12/28 07:14:29;;;;;;;50.43;31.00;;;;;;;12.29;67.00;93958.56;5084175;28;20415;-78
2021/12/28 07:16:56;;;;;;;59.40;34.90;;;;;;;12.51;66.14;93956.28;5084220;28;20412;-78
2021/12/28 07:19:23;;;;;;;71.93;37.27;;;;;;;12.24;66.67;93961.06;5065878;28;20197;-79
2021/12/28 07:21:48;;;;;;;51.10;30.27;;;;;;;12.48;65.36;93959.34;5084320;28;20420;-78
2021/12/28 07:24:14;;;;;;;44.80;29.00;;;;;;;12.80;64.49;93959.09;5066118;28;20447;-78
2021/12/28 07:26:39;;;;;;;48.70;27.97;;;;;;;12.91;64.97;93954.91;5076644;28;20209;-79
2021/12/28 07:29:06;;;;;;;38.10;25.50;;;;;;;12.72;63.95;93957.59;5071878;28;20186;-78
2021/12/28 07:31:32;;;;;;;48.60;26.60;;;;;;;12.71;65.08;93961.25;5078049;28;20174;-78
2021/12/28 07:33:57;;;;;;;44.90;26.87;;;;;;;12.75;65.48;93956.31;5058821;28;20449;-78
2021/12/28 07:36:23;;;;;;;41.07;27.10;;;;;;;12.83;66.30;93966.53;5084028;28;20432;-78
2021/12/28 07:38:49;;;;;;;37.10;24.53;;;;;;;12.95;65.75;93964.72;5084594;28;20166;-79
2021/12/28 07:41:15;;;;;;;35.30;25.53;;;;;;;13.13;65.37;93963.03;5084343;28;20179;-78
2021/12/28 07:43:40;;;;;;;30.40;22.50;;;;;;;13.32;63.88;93961.13;5083730;28;20186;-78
2021/12/28 07:46:06;;;;;;;24.30;18.23;;;;;;;13.46;63.18;93958.03;5094365;28;20187;-77
2021/12/28 07:48:32;;;;;;;25.83;18.43;;;;;;;13.45;62.68;93958.28;5085549;28;20827;-78
2021/12/28 07:50:57;;;;;;;25.97;19.00;;;;;;;13.31;63.86;93960.34;5066027;28;20190;-78
2021/12/28 07:53:23;;;;;;;22.83;18.63;;;;;;;13.51;63.01;93952.13;5084529;28;20241;-77
2021/12/28 07:55:48;;;;;;;24.93;18.40;;;;;;;13.72;62.65;93955.97;5066377;28;20185;-78
2021/12/28 07:58:14;;;;;;;20.90;16.67;;;;;;;13.67;62.53;93955.88;5083156;28;20221;-78
2021/12/28 08:00:40;;;;;;;17.13;12.80;;;;;;;13.43;63.48;93955.06;5064113;28;20194;-78
2021/12/28 08:03:05;;;;;;;28.53;20.63;;;;;;;13.36;62.88;93957.03;5078863;28;20209;-78
2021/12/28 08:05:33;;;;;;;23.47;16.80;;;;;;;13.12;63.83;93966.69;5065956;28;20284;-79
2021/12/28 08:07:58;;;;;;;24.77;16.93;;;;;;;13.26;62.81;93962.81;5065746;28;20213;-77
2021/12/28 08:10:24;;;;;;;19.80;15.47;;;;;;;13.35;63.69;93964.09;5084453;28;20432;-78
2021/12/28 08:12:54;;;;;;;17.17;14.57;;;;;;;13.38;63.49;93966.28;5075620;28;20664;-78
2021/12/28 08:15:20;;;;;;;14.87;13.07;;;;;;;13.30;63.66;93961.38;5086097;28;20415;-78
2021/12/28 08:17:46;;;;;;;17.27;15.47;;;;;;;13.35;63.00;93966.72;5085770;28;20426;-78
2021/12/28 08:20:13;;;;;;;23.13;15.17;;;;;;;13.38;63.01;93960.22;5104199;28;20407;-77
2021/12/28 08:22:39;;;;;;;20.00;15.40;;;;;;;13.39;63.32;93961.81;5084909;28;20200;-78
2021/12/28 08:25:06;;;;;;;15.40;13.80;;;;;;;13.44;63.69;93952.22;5102457;28;20809;-78
2021/12/28 08:27:32;;;;;;;16.07;14.37;;;;;;;13.38;63.95;93960.22;5103667;28;20470;-78
2021/12/28 08:29:57;;;;;;;15.73;14.00;;;;;;;13.83;62.74;93963.06;5104457;28;20816;-78
2021/12/28 08:32:23;;;;;;;15.83;14.27;;;;;;;13.75;62.25;93966.03;5104898;28;20439;-78
2021/12/28 08:34:49;;;;;;;14.93;13.33;;;;;;;13.40;63.32;93958.97;5106603;28;20199;-79
2021/12/28 08:37:15;;;;;;;17.13;14.07;;;;;;;13.59;62.91;93956.22;5090638;28;20193;-79
2021/12/28 08:39:40;;;;;;;16.00;12.20;;;;;;;13.48;63.17;93960.44;5088937;28;20407;-78
2021/12/28 08:42:06;;;;;;;15.57;11.63;;;;;;;13.67;62.63;93966.38;5107518;28;20197;-79
2021/12/28 08:44:32;;;;;;;13.90;11.00;;;;;;;14.13;61.36;93962.06;5088540;28;20181;-79
2021/12/28 08:46:57;;;;;;;19.83;12.80;;;;;;;14.22;61.43;93959.88;5088763;28;20477;-78
2021/12/28 08:49:25;;;;;;;14.40;12.90;;;;;;;14.43;60.43;93956.59;5087984;28;20181;-77
2021/12/28 08:51:50;;;;;;;12.17;10.90;;;;;;;14.29;59.69;93952.66;5092858;28;20211;-78
2021/12/28 08:54:16;;;;;;;13.53;12.13;;;;;;;14.46;59.68;93950.06;5107232;28;20415;-77
2021/12/28 08:56:42;;;;;;;12.10;10.77;;;;;;;14.47;59.43;93951.66;5106985;28;20518;-77
2021/12/28 08:59:07;;;;;;;10.47;9.10;;;;;;;14.65;57.91;93937.53;5107362;28;20183;-78
2021/12/28 09:01:33;;;;;;;7.43;6.47;;;;;;;13.75;59.65;93938.94;5111182;28;20189;-78
2021/12/28 09:03:58;;;;;;;9.30;8.40;;;;;;;14.08;60.50;93938.31;5104923;28;20184;-78
2021/12/28 09:06:24;;;;;;;10.83;8.70;;;;;;;14.61;58.76;93937.22;5096929;28;20185;-77
2021/12/28 09:08:52;;;;;;;10.47;9.10;;;;;;;14.94;58.41;93942.75;5103934;28;20193;-77
2021/12/28 09:11:18;;;;;;;12.03;8.90;;;;;;;15.16;56.65;93942.84;5106867;28;20224;-78
2021/12/28 09:13:43;;;;;;;9.40;8.50;;;;;;;14.71;57.65;93938.41;5085183;28;20470;-78
2021/12/28 09:16:09;;;;;;;10.30;8.43;;;;;;;14.76;57.02;93936.69;5086482;28;20266;-78
2021/12/28 09:18:35;;;;;;;9.50;8.60;;;;;;;15.01;57.23;93936.28;5095956;28;20572;-77
2021/12/28 09:21:01;;;;;;;9.00;8.20;;;;;;;15.16;56.17;93938.38;5100884;28;20431;-77
2021/12/28 09:23:26;;;;;;;9.47;8.40;;;;;;;14.89;57.00;93932.94;5106483;28;20609;-77
2021/12/28 09:25:52;;;;;;;9.73;7.30;;;;;;;15.11;57.36;93940.91;5107025;28;20203;-78
2021/12/28 09:28:17;;;;;;;9.47;8.50;;;;;;;15.19;56.50;93939.72;5087793;28;20217;-78
2021/12/28 09:30:43;;;;;;;10.20;8.03;;;;;;;15.30;55.61;93933.56;5106641;28;20196;-78
2021/12/28 09:33:10;;;;;;;10.00;9.00;;;;;;;15.35;55.73;93935.50;5085758;28;20193;-79
2021/12/28 09:35:36;;;;;;;8.70;7.97;;;;;;;15.19;56.89;93932.59;5086717;28;20166;-79
2021/12/28 09:38:02;;;;;;;8.60;7.90;;;;;;;15.72;55.71;93927.81;5095111;28;20462;-78
2021/12/28 09:40:28;;;;;;;9.57;8.67;;;;;;;15.87;54.44;93924.59;5086803;28;20284;-79
2021/12/28 09:42:54;;;;;;;9.30;8.50;;;;;;;15.98;54.29;93922.91;5088325;28;20438;-79
2021/12/28 09:45:20;;;;;;;8.60;7.90;;;;;;;15.97;55.29;93916.00;5107044;28;20169;-78
2021/12/28 09:47:45;;;;;;;9.10;8.30;;;;;;;16.47;54.61;93908.94;5107012;28;20470;-81
2021/12/28 09:50:15;;;;;;;11.33;10.13;;;;;;;16.42;54.56;93914.94;5106679;28;20184;-80
2021/12/28 09:52:42;;;;;;;10.63;9.63;;;;;;;16.76;52.01;93912.09;5106157;28;20200;-77
2021/12/28 09:55:09;;;;;;;11.47;10.47;;;;;;;16.85;52.68;93910.63;5105137;28;20423;-78
2021/12/28 09:57:35;;;;;;;13.93;12.40;;;;;;;16.78;53.17;93912.63;5105848;28;20434;-80
2021/12/28 10:00:00;;;;;;;20.10;18.17;;;;;;;16.52;53.04;93917.69;5106126;28;20439;-79
2021/12/28 10:02:26;;;;;;;23.33;20.93;;;;;;;15.85;55.21;93923.28;5106159;28;20189;-79
2021/12/28 10:04:58;;;;;;;20.87;18.87;;;;;;;16.12;54.30;93923.31;5105804;28;20173;-78
2021/12/28 10:07:27;;;;;;;23.23;19.57;;;;;;;16.42;53.95;93914.94;5098561;28;20288;-78
2021/12/28 10:09:53;;;;;;;19.93;17.90;;;;;;;16.49;53.29;93912.13;5103543;28;20437;-79
2021/12/28 10:12:31;;;;;;;21.37;19.30;;;;;;;15.73;54.96;93912.81;5087327;28;20502;-80
2021/12/28 10:15:00;;;;;;;20.97;18.77;;;;;;;16.28;53.92;93911.09;5087238;28;20475;-79
2021/12/28 10:17:29;;;;;;;22.77;18.63;;;;;;;16.26;53.44;93903.44;5104995;28;20462;-77
2021/12/28 10:19:55;;;;;;;18.33;16.30;;;;;;;16.09;53.40;93906.16;5076847;28;20427;-77
2021/12/28 10:22:29;;;;;;;21.20;18.00;;;;;;;16.01;54.53;93911.84;5074141;28;20500;-80
2021/12/28 10:24:57;;;;;;;15.90;14.30;;;;;;;15.66;54.81;93910.34;5105647;28;20488;-78
2021/12/28 10:27:26;;;;;;;16.27;14.87;;;;;;;16.20;53.53;93901.75;5104270;28;20514;-77
2021/12/28 10:29:53;;;;;;;15.90;14.17;;;;;;;16.06;53.30;93896.06;5105516;28;20437;-79
2021/12/28 10:32:26;;;;;;;16.87;15.37;;;;;;;16.31;53.51;93889.47;5104273;28;20818;-79
2021/12/28 10:34:59;;;;;;;22.70;19.33;;;;;;;15.78;54.39;93895.22;5088788;28;20434;-79
2021/12/28 10:37:31;;;;;;;24.00;20.57;;;;;;;15.40;55.68;93907.38;5112036;28;20428;-80
2021/12/28 10:39:59;;;;;;;22.53;20.03;;;;;;;15.69;55.20;93894.03;5091642;28;20407;-79
2021/12/28 10:42:40;;;;;;;17.17;15.37;;;;;;;15.91;54.33;93901.19;5103556;28;20454;-78
2021/12/28 10:45:08;;;;;;;14.37;13.00;;;;;;;16.26;53.50;93900.78;5085527;28;20464;-78
2021/12/28 10:47:33;;;;;;;16.60;15.00;;;;;;;15.93;54.73;93896.44;5104978;28;20474;-76
2021/12/28 10:50:07;;;;;;;16.00;14.40;;;;;;;16.11;53.72;93893.50;5104526;28;20427;-79
2021/12/28 10:52:37;;;;;;;17.47;14.93;;;;;;;15.72;54.34;93893.53;5105085;28;20252;-78
2021/12/28 10:55:24;;;;;;;16.43;14.70;;;;;;;15.59;55.05;93899.16;5086276;28;20447;-78
2021/12/28 10:57:51;;;;;;;19.70;14.43;;;;;;;15.36;55.39;93893.03;5085421;28;20443;-79
2021/12/28 11:00:42;;;;;;;16.83;15.03;;;;;;;15.69;54.83;93899.31;5098853;28;20525;-79
2021/12/28 11:03:17;;;;;;;16.30;14.80;;;;;;;15.80;54.41;93893.16;5100937;28;20469;-79
2021/12/28 11:05:44;;;;;;;14.90;13.43;;;;;;;15.73;54.48;93894.34;5095014;28;20798;-78
2021/12/28 11:08:11;;;;;;;15.53;14.03;;;;;;;15.98;53.83;93885.97;5098621;28;20477;-78
2021/12/28 11:10:43;;;;;;;16.10;14.60;;;;;;;16.33;53.30;93885.56;5102069;28;20440;-77
2021/12/28 11:13:08;;;;;;;16.03;14.33;;;;;;;16.82;52.58;93882.03;5101491;28;20439;-78
2021/12/28 11:15:37;;;;;;;14.03;12.70;;;;;;;17.11;51.73;93876.44;5078900;28;20438;-80
2021/12/28 11:18:30;;;;;;;15.47;13.87;;;;;;;15.87;53.93;93873.69;5098398;28;20178;-79
2021/12/28 11:20:58;;;;;;;14.40;13.10;;;;;;;16.43;52.78;93873.47;5076917;28;20424;-79